createdAt,value
2019-01-02T00:02:05.607Z,3.30
2019-01-02T00:04:47.732Z,3.40
2019-01-02T00:07:28.975Z,3.30
2019-01-02T00:10:09.164Z,3.30
2019-01-02T00:12:49.603Z,3.30
2019-01-02T00:15:30.860Z,3.40
2019-01-02T00:18:11.040Z,3.30
2019-01-02T00:20:52.186Z,3.30
2019-01-02T00:23:33.143Z,3.20
2019-01-02T00:26:13.309Z,3.30
2019-01-02T00:28:53.721Z,3.10
2019-01-02T00:31:33.975Z,3.20
2019-01-02T00:34:14.285Z,3.20
2019-01-02T00:36:54.433Z,3.30
2019-01-02T00:39:41.912Z,3.30
2019-01-02T00:42:21.980Z,3.40
2019-01-02T00:45:02.175Z,3.20
2019-01-02T00:47:42.496Z,3.00
2019-01-02T00:50:22.653Z,3.30
2019-01-02T00:53:02.974Z,3.20
2019-01-02T00:55:44.244Z,3.20
2019-01-02T00:58:24.787Z,3.20
2019-01-02T01:01:05.132Z,3.20
2019-01-02T01:03:45.131Z,3.30
2019-01-02T01:06:25.431Z,3.20
2019-01-02T01:09:06.513Z,3.20
2019-01-02T01:11:53.981Z,3.20
2019-01-02T01:14:46.300Z,3.30
2019-01-02T01:17:33.788Z,3.30
2019-01-02T01:20:15.592Z,3.30
2019-01-02T01:22:43.029Z,3.40
2019-01-02T01:25:10.403Z,3.30
2019-01-02T01:27:51.116Z,3.40
2019-01-02T01:30:31.303Z,3.30
2019-01-02T01:32:58.755Z,3.40
2019-01-02T01:35:45.996Z,3.40
2019-01-02T01:38:28.522Z,3.40
2019-01-02T01:41:08.818Z,3.30
2019-01-02T01:43:49.289Z,3.20
2019-01-02T01:46:29.645Z,3.20
2019-01-02T01:49:11.148Z,3.10
2019-01-02T01:51:52.284Z,3.10
2019-01-02T01:54:32.565Z,3.00
2019-01-02T01:57:19.861Z,3.00
2019-01-02T02:00:00.294Z,2.90
2019-01-02T02:02:47.936Z,2.80
2019-01-02T02:05:41.022Z,2.80
2019-01-02T02:08:28.311Z,2.70
2019-01-02T02:11:08.387Z,2.60
2019-01-02T02:13:48.580Z,2.60
2019-01-02T02:16:29.029Z,2.60
2019-01-02T02:19:09.368Z,2.50
2019-01-02T02:21:49.702Z,2.60
2019-01-02T02:24:29.829Z,2.60
2019-01-02T02:27:10.381Z,2.50
2019-01-02T02:29:50.258Z,2.50
2019-01-02T02:32:30.667Z,2.50
2019-01-02T02:35:11.764Z,2.40
2019-01-02T02:37:51.729Z,2.20
2019-01-02T02:40:32.239Z,2.30
2019-01-02T02:43:12.809Z,2.40
2019-01-02T02:45:53.210Z,2.30
2019-01-02T02:48:34.309Z,2.30
2019-01-02T02:51:14.452Z,2.30
2019-01-02T02:53:55.099Z,2.40
2019-01-02T02:56:35.211Z,2.30
2019-01-02T02:59:15.602Z,2.40
2019-01-02T03:02:02.505Z,2.30
2019-01-02T03:04:43.058Z,2.20
2019-01-02T03:07:30.648Z,2.10
2019-01-02T03:10:22.995Z,1.90
2019-01-02T03:13:04.458Z,2.10
2019-01-02T03:18:45.395Z,2.10
2019-01-02T03:21:26.753Z,2.10
2019-01-02T03:24:07.994Z,2.00
2019-01-02T03:26:48.214Z,2.00
2019-01-02T03:29:28.383Z,2.00
2019-01-02T03:32:08.769Z,1.90
2019-01-02T03:34:49.353Z,1.90
2019-01-02T03:37:29.579Z,2.10
2019-01-02T03:40:10.015Z,2.00
2019-01-02T03:42:51.010Z,2.00
2019-01-02T03:45:31.377Z,2.10
2019-01-02T03:51:14.075Z,2.00
2019-01-02T03:54:01.143Z,1.90
2019-01-02T03:56:41.868Z,1.80
2019-01-02T03:59:22.825Z,1.90
2019-01-02T04:02:03.151Z,2.00
2019-01-02T04:04:43.197Z,2.00
2019-01-02T04:07:23.575Z,1.90
2019-01-02T04:10:05.051Z,1.90
2019-01-02T04:12:44.970Z,1.90
2019-01-02T04:15:25.209Z,1.90
2019-01-02T04:18:05.479Z,1.90
2019-01-02T04:20:45.899Z,1.90
2019-01-02T04:23:26.139Z,1.90
2019-01-02T04:26:06.552Z,1.90
2019-01-02T04:28:46.996Z,1.70
2019-01-02T04:31:27.191Z,2.00
2019-01-02T04:34:07.605Z,1.90
2019-01-02T04:36:47.557Z,2.00
2019-01-02T04:39:28.009Z,1.90
2019-01-02T04:42:08.204Z,1.90
2019-01-02T04:44:48.358Z,1.90
2019-01-02T04:47:28.788Z,1.80
2019-01-02T04:50:10.144Z,1.90
2019-01-02T04:52:50.580Z,1.90
2019-01-02T04:55:37.720Z,1.90
2019-01-02T04:58:18.482Z,1.90
2019-01-02T05:00:59.622Z,1.90
2019-01-02T05:03:26.945Z,1.90
2019-01-02T05:06:07.478Z,1.90
2019-01-02T05:08:47.764Z,1.90
2019-01-02T05:11:28.555Z,1.90
2019-01-02T05:14:08.736Z,2.00
2019-01-02T05:16:48.911Z,2.00
2019-01-02T05:19:29.483Z,2.00
2019-01-02T05:22:09.693Z,2.00
2019-01-02T05:24:56.970Z,2.00
2019-01-02T05:27:37.536Z,2.00
2019-01-02T05:30:18.018Z,2.00
2019-01-02T05:32:58.174Z,2.10
2019-01-02T05:35:39.576Z,2.00
2019-01-02T05:38:19.892Z,2.00
2019-01-02T05:41:00.134Z,2.10
2019-01-02T05:44:15.414Z,2.20
2019-01-02T05:47:06.266Z,2.10
2019-01-02T05:50:33.504Z,2.10
2019-01-02T06:26:15.314Z,2.40
2019-01-02T06:28:42.774Z,2.40
2019-01-02T06:31:10.234Z,2.40
2019-01-02T06:33:37.689Z,2.40
2019-01-02T06:36:05.261Z,2.40
2019-01-02T06:38:32.907Z,2.40
2019-01-02T06:41:00.533Z,2.40
2019-01-02T06:43:28.020Z,2.40
2019-01-02T06:45:55.448Z,2.40
2019-01-02T06:48:23.162Z,2.40
2019-01-02T06:50:50.711Z,2.50
2019-01-02T06:53:18.065Z,2.40
2019-01-02T06:55:45.488Z,2.40
2019-01-02T06:58:12.856Z,2.40
2019-01-02T07:00:42.321Z,2.40
2019-01-02T07:03:09.689Z,2.40
2019-01-02T07:05:37.300Z,2.50
2019-01-02T07:08:05.290Z,2.50
2019-01-02T07:10:32.942Z,2.50
2019-01-02T07:13:00.592Z,2.50
2019-01-02T07:15:28.068Z,2.50
2019-01-02T07:17:55.926Z,2.50
2019-01-02T07:20:23.385Z,2.50
2019-01-02T07:22:50.844Z,2.60
2019-01-02T07:25:18.316Z,2.60
2019-01-02T07:27:45.761Z,2.60
2019-01-02T07:37:14.344Z,2.60
2019-01-02T07:44:47.493Z,2.60
2019-01-02T07:48:35.350Z,2.60
2019-01-02T07:51:31.440Z,2.60
2019-01-02T07:55:01.408Z,2.80
2019-01-02T07:58:36.722Z,2.70
2019-01-02T08:01:59.321Z,2.60
2019-01-02T08:05:20.964Z,2.60
2019-01-02T08:08:41.532Z,2.60
2019-01-02T08:11:25.540Z,2.60
2019-01-02T08:15:02.817Z,2.60
2019-01-02T08:17:56.773Z,2.60
2019-01-02T08:21:11.015Z,2.60
2019-01-02T08:24:41.926Z,2.70
2019-01-02T08:27:53.563Z,2.60
2019-01-02T08:31:14.983Z,2.60
2019-01-02T08:34:16.952Z,2.60
2019-01-02T08:37:48.664Z,2.60
2019-01-02T08:40:42.123Z,2.70
2019-01-02T08:43:25.593Z,2.70
2019-01-02T08:47:02.131Z,2.70
2019-01-02T08:50:12.990Z,2.80
2019-01-02T08:53:16.105Z,2.80
2019-01-02T08:56:06.944Z,2.80
2019-01-02T08:59:12.170Z,2.80
2019-01-02T09:02:55.228Z,2.80
2019-01-02T09:06:01.881Z,2.90
2019-01-02T09:09:21.371Z,2.90
2019-01-02T09:12:41.259Z,2.90
2019-01-02T09:15:34.295Z,2.90
2019-01-02T09:18:39.166Z,2.90
2019-01-02T09:21:53.615Z,2.80
2019-01-02T09:25:21.284Z,2.80
2019-01-02T09:28:22.494Z,2.80
2019-01-02T09:31:31.364Z,2.80
2019-01-02T09:34:53.946Z,2.80
2019-01-02T09:38:30.964Z,2.90
2019-01-02T09:41:41.982Z,2.90
2019-01-02T09:44:59.914Z,3.00
2019-01-02T09:48:20.151Z,3.10
2019-01-02T09:51:57.668Z,3.10
2019-01-02T09:55:22.478Z,3.20
2019-01-02T09:58:36.416Z,3.30
2019-01-02T10:02:29.110Z,3.30
2019-01-02T10:05:41.083Z,3.30
2019-01-02T10:08:43.759Z,3.30
2019-01-02T10:11:59.208Z,3.30
2019-01-02T10:15:31.793Z,3.30
2019-01-02T10:18:50.582Z,3.30
2019-01-02T10:22:15.125Z,3.40
2019-01-02T10:25:34.797Z,3.40
2019-01-02T10:29:03.805Z,3.40
2019-01-02T10:31:55.313Z,3.20
2019-01-02T10:34:44.158Z,3.20
2019-01-02T10:37:45.343Z,3.10
2019-01-02T10:40:58.598Z,3.10
2019-01-02T10:44:23.337Z,3.10
2019-01-02T10:47:45.548Z,3.00
2019-01-02T10:51:01.348Z,3.00
2019-01-02T10:54:22.670Z,3.00
2019-01-02T10:57:28.909Z,3.00
2019-01-02T11:00:50.433Z,3.00
2019-01-02T11:03:56.038Z,3.00
2019-01-02T11:07:25.470Z,3.00
2019-01-02T11:10:43.435Z,3.00
2019-01-02T11:14:22.741Z,3.00
2019-01-02T11:17:46.236Z,3.00
2019-01-02T11:21:04.031Z,3.00
2019-01-02T11:24:14.370Z,3.00
2019-01-02T11:27:44.998Z,3.00
2019-01-02T11:30:49.445Z,3.00
2019-01-02T11:34:05.213Z,3.00
2019-01-02T11:37:31.396Z,3.00
2019-01-02T11:40:52.189Z,3.00
2019-01-02T11:44:21.112Z,3.00
2019-01-02T11:46:46.009Z,3.00
2019-01-02T11:49:13.337Z,3.10
2019-01-02T11:51:40.949Z,3.20
2019-01-02T11:54:08.397Z,3.30
2019-01-02T11:56:37.084Z,3.40
2019-01-02T11:59:04.555Z,3.40
2019-01-02T12:01:31.958Z,3.50
2019-01-02T12:03:59.277Z,3.60
2019-01-02T12:06:26.762Z,3.60
2019-01-02T12:08:54.315Z,3.60
2019-01-02T12:11:21.970Z,3.50
2019-01-02T12:13:49.411Z,3.50
2019-01-02T12:16:17.079Z,3.40
2019-01-02T12:18:46.484Z,3.40
2019-01-02T12:21:13.831Z,3.40
2019-01-02T12:23:41.180Z,3.40
2019-01-02T12:26:08.665Z,3.30
2019-01-02T12:28:36.016Z,3.30
2019-01-02T12:31:03.467Z,3.30
2019-01-02T12:33:30.914Z,3.30
2019-01-02T12:35:58.573Z,3.30
2019-01-02T12:38:33.094Z,3.30
2019-01-02T12:41:00.708Z,3.20
2019-01-02T12:43:28.100Z,3.10
2019-01-02T12:45:55.420Z,3.10
2019-01-02T12:48:22.774Z,3.10
2019-01-02T12:50:50.139Z,3.10
2019-01-02T12:53:17.573Z,3.20
2019-01-02T12:55:45.096Z,3.20
2019-01-02T12:58:12.452Z,3.30
2019-01-02T13:00:47.421Z,3.30
2019-01-02T13:04:21.681Z,3.30
2019-01-02T13:07:36.294Z,3.20
2019-01-02T13:10:49.771Z,3.00
2019-01-02T13:14:36.131Z,3.10
2019-01-02T13:17:32.626Z,3.20
2019-01-02T13:20:47.513Z,3.10
2019-01-02T13:23:40.048Z,3.10
2019-01-02T13:27:09.665Z,3.10
2019-01-02T13:30:23.777Z,3.10
2019-01-02T13:33:19.487Z,3.10
2019-01-02T13:36:17.188Z,3.10
2019-01-02T13:39:16.495Z,3.10
2019-01-02T13:41:59.544Z,3.10
2019-01-02T13:45:16.394Z,3.10
2019-01-02T13:48:43.589Z,3.00
2019-01-02T13:51:28.079Z,3.00
2019-01-02T13:54:08.755Z,3.00
2019-01-02T13:56:49.331Z,3.00
2019-01-02T13:59:29.131Z,2.80
2019-01-02T14:02:09.620Z,2.90
2019-01-02T14:04:38.896Z,2.80
2019-01-02T14:10:21.875Z,2.90
2019-01-02T14:13:02.008Z,2.80
2019-01-02T14:15:29.390Z,2.80
2019-01-02T14:18:16.495Z,2.80
2019-01-02T14:20:44.071Z,2.70
2019-01-02T14:23:31.233Z,2.70
2019-01-02T14:25:59.515Z,2.80
2019-01-02T14:28:27.192Z,2.70
2019-01-02T14:31:07.882Z,2.70
2019-01-02T14:33:54.860Z,2.60
2019-01-02T14:36:35.893Z,2.60
2019-01-02T14:39:22.304Z,2.60
2019-01-02T14:42:10.695Z,2.70
2019-01-02T14:44:51.161Z,2.60
2019-01-02T14:47:18.550Z,2.60
2019-01-02T14:50:06.303Z,2.60
2019-01-02T14:52:34.767Z,2.70
2019-01-02T14:55:21.995Z,2.60
2019-01-02T14:58:02.275Z,2.50
2019-01-02T15:00:29.903Z,2.50
2019-01-02T15:03:38.688Z,2.50
2019-01-02T15:06:19.390Z,2.50
2019-01-02T15:08:59.548Z,2.50
2019-01-02T15:12:57.999Z,2.50
2019-01-02T15:14:59.633Z,2.50
2019-01-02T15:17:27.930Z,2.40
2019-01-02T15:24:02.956Z,2.40
2019-01-02T15:27:32.265Z,2.30
2019-01-02T15:30:13.261Z,2.30
2019-01-02T15:32:56.311Z,2.20
2019-01-02T15:35:37.702Z,2.30
2019-01-02T15:38:05.627Z,2.20
2019-01-02T15:40:33.179Z,2.20
2019-01-02T15:43:15.487Z,2.20
2019-01-02T15:46:25.184Z,2.30
2019-01-02T15:49:17.001Z,2.10
2019-01-02T15:51:57.240Z,2.00
2019-01-02T15:54:37.671Z,2.00
2019-01-02T15:57:18.046Z,1.80
2019-01-02T15:59:58.353Z,2.00
2019-01-02T16:02:38.778Z,1.90
2019-01-02T16:05:19.731Z,2.00
2019-01-02T16:07:59.886Z,2.00
2019-01-02T16:10:27.268Z,2.00
2019-01-02T16:13:07.756Z,1.90
2019-01-02T16:15:48.054Z,1.80
2019-01-02T16:18:28.493Z,1.60
2019-01-02T16:21:09.278Z,1.70
2019-01-02T16:23:49.965Z,1.50
2019-01-02T16:26:30.094Z,1.70
2019-01-02T16:29:10.455Z,1.60
2019-01-02T16:31:50.649Z,1.60
2019-01-02T16:34:30.640Z,1.70
2019-01-02T16:37:10.911Z,1.60
2019-01-02T16:39:50.947Z,1.40
2019-01-02T16:42:31.038Z,1.60
2019-01-02T16:48:14.489Z,1.60
2019-01-02T16:50:54.624Z,1.50
2019-01-02T16:53:34.718Z,1.50
2019-01-02T16:56:14.900Z,1.20
2019-01-02T16:58:55.508Z,1.40
2019-01-02T17:01:23.363Z,1.40
2019-01-02T17:04:04.272Z,1.40
2019-01-02T17:06:44.651Z,1.40
2019-01-02T17:09:24.625Z,1.30
2019-01-02T17:12:08.016Z,1.50
2019-01-02T17:14:48.464Z,1.50
2019-01-02T17:17:28.724Z,1.50
2019-01-02T17:20:08.824Z,1.50
2019-01-02T17:22:48.752Z,1.60
2019-01-02T17:25:29.409Z,1.50
2019-01-02T17:28:09.533Z,1.60
2019-01-02T17:30:49.770Z,1.60
2019-01-02T17:33:30.055Z,1.60
2019-01-02T17:35:58.605Z,1.50
2019-01-02T17:38:45.872Z,1.50
2019-01-02T17:41:33.134Z,1.60
2019-01-02T17:44:20.334Z,1.40
2019-01-02T17:50:01.068Z,1.50
2019-01-02T17:52:41.834Z,1.40
2019-01-02T17:55:22.218Z,1.20
2019-01-02T17:58:09.263Z,1.00
2019-01-02T18:00:56.353Z,1.20
2019-01-02T18:03:43.993Z,1.10
2019-01-02T18:06:24.364Z,1.10
2019-01-02T18:09:07.490Z,1.20
2019-01-02T18:11:49.752Z,1.00
2019-01-02T18:14:30.085Z,1.10
2019-01-02T18:17:10.120Z,1.00
2019-01-02T18:19:50.685Z,0.90
2019-01-02T18:22:30.536Z,1.00
2019-01-02T18:25:10.819Z,1.00
2019-01-02T18:27:51.052Z,1.00
2019-01-02T18:30:32.533Z,0.90
2019-01-02T18:33:13.406Z,1.00
2019-01-02T18:35:53.675Z,0.90
2019-01-02T18:38:33.870Z,0.90
2019-01-02T18:41:13.925Z,0.80
2019-01-02T18:43:54.064Z,1.00
2019-01-02T18:46:34.279Z,0.90
2019-01-02T18:49:14.465Z,0.90
2019-01-02T18:51:54.673Z,0.90
2019-01-02T18:54:34.734Z,0.90
2019-01-02T19:24:20.770Z,-0.10
2019-01-02T19:26:48.497Z,-0.10
2019-01-02T19:29:15.950Z,-0.20
2019-01-02T19:31:44.328Z,-0.10
2019-01-02T19:34:13.254Z,-0.10
2019-01-02T19:36:41.018Z,-0.10
2019-01-02T19:39:09.925Z,0.00
2019-01-02T19:41:37.796Z,0.00
2019-01-02T19:44:05.679Z,0.00
2019-01-02T19:46:33.260Z,0.10
2019-01-02T19:49:01.031Z,0.10
2019-01-02T19:51:28.549Z,0.20
2019-01-02T19:53:55.983Z,0.20
2019-01-02T19:56:23.365Z,0.20
2019-01-02T19:58:50.977Z,0.30
2019-01-02T20:01:18.523Z,0.30
2019-01-02T20:03:46.072Z,0.30
2019-01-02T20:06:16.106Z,0.40
2019-01-02T20:08:44.893Z,0.40
2019-01-02T20:11:12.610Z,0.30
2019-01-02T20:13:40.327Z,0.30
2019-01-02T20:16:07.918Z,0.40
2019-01-02T20:18:35.673Z,0.40
2019-01-02T20:21:03.179Z,0.40
2019-01-02T20:23:30.571Z,0.40
2019-01-02T20:25:58.213Z,0.40
2019-01-02T20:28:27.058Z,0.40
2019-01-02T20:30:54.739Z,0.40
2019-01-02T20:33:22.243Z,0.50
2019-01-02T20:35:49.636Z,0.50
2019-01-02T20:38:17.960Z,0.40
2019-01-02T20:40:45.727Z,0.50
2019-01-02T20:43:13.231Z,0.50
2019-01-02T20:45:43.094Z,0.40
2019-01-02T20:48:10.945Z,0.40
2019-01-02T20:50:38.512Z,0.40
2019-01-02T20:53:08.245Z,0.40
2019-01-02T20:55:38.462Z,0.40
2019-01-02T20:58:08.590Z,0.50
2019-01-02T21:00:39.316Z,0.50
2019-01-02T21:03:11.436Z,0.50
2019-01-02T21:05:40.533Z,0.60
2019-01-02T21:08:16.844Z,0.50
2019-01-02T21:10:47.198Z,0.50
2019-01-02T21:13:17.187Z,0.60
2019-01-02T21:15:44.640Z,0.60
2019-01-02T21:18:12.243Z,0.50
2019-01-02T21:20:42.455Z,0.60
2019-01-02T21:23:11.959Z,0.50
2019-01-02T21:25:40.408Z,0.50
2019-01-02T21:28:09.290Z,0.50
2019-01-02T21:30:37.009Z,0.40
2019-01-02T21:33:04.723Z,0.40
2019-01-02T21:35:32.120Z,0.40
2019-01-02T21:37:59.528Z,0.40
2019-01-02T21:40:27.141Z,0.40
2019-01-02T21:42:54.486Z,0.40
2019-01-02T21:45:21.995Z,0.30
2019-01-02T21:47:49.373Z,0.30
2019-01-02T21:50:16.756Z,0.30
2019-01-02T21:52:44.205Z,0.30
2019-01-02T21:55:11.813Z,0.30
2019-01-02T21:57:39.382Z,0.20
2019-01-02T22:00:13.199Z,0.20
2019-01-02T22:02:44.104Z,0.20
2019-01-02T22:05:11.588Z,0.30
2019-01-02T22:07:39.145Z,0.30
2019-01-02T22:10:07.602Z,0.30
2019-01-02T22:12:34.977Z,0.20
2019-01-02T22:15:02.935Z,0.20
2019-01-02T22:17:30.521Z,0.10
2019-01-02T22:19:57.936Z,0.10
2019-01-02T22:22:25.486Z,0.10
2019-01-02T22:24:53.208Z,0.10
2019-01-02T22:27:20.707Z,0.10
2019-01-02T22:29:48.107Z,0.10
2019-01-02T22:32:15.864Z,0.10
2019-01-02T22:34:43.500Z,0.10
2019-01-02T22:37:11.347Z,0.10
2019-01-02T22:39:38.949Z,0.10
2019-01-02T22:42:06.616Z,0.00
2019-01-02T22:44:34.352Z,0.00
2019-01-02T22:47:01.866Z,0.00
2019-01-02T22:49:29.463Z,0.00
2019-01-02T22:51:57.095Z,0.10
2019-01-02T22:54:24.655Z,0.10
2019-01-02T22:56:53.704Z,0.10
2019-01-02T22:59:21.322Z,0.10
2019-01-02T23:02:11.331Z,0.10
2019-01-02T23:04:56.817Z,0.20
2019-01-02T23:07:51.919Z,0.10
2019-01-02T23:10:51.338Z,0.10
2019-01-02T23:13:36.852Z,0.10
2019-01-02T23:16:20.827Z,0.10
2019-01-02T23:19:08.097Z,0.10
2019-01-02T23:22:01.906Z,0.10
2019-01-02T23:24:54.891Z,0.10
2019-01-02T23:27:40.371Z,0.10
2019-01-02T23:30:25.914Z,0.00
2019-01-02T23:33:11.975Z,0.00
2019-01-02T23:36:04.699Z,-0.10
2019-01-02T23:38:54.709Z,-0.10
2019-01-02T23:41:50.829Z,-0.20
2019-01-02T23:44:52.857Z,-0.10
2019-01-02T23:47:38.460Z,-0.10
2019-01-02T23:50:40.715Z,-0.10
2019-01-02T23:53:32.067Z,-0.10
2019-01-02T23:56:19.265Z,-0.20
2019-01-02T23:59:15.469Z,-0.10
